Como, CO

7:40 AM MDT on September 04, 2015 (GMT -0600)
Stanley Ridge @ Indian Mtn | | Change Station
CLOSE
Current Station
Personal Weather Station
Location: Como, CO
Elevation: 9784 ft
Nearby Weather Stations

Elev 9784 ft 39.25 °N, 105.79 °W | Updated 3 minutes ago

Clear
Clear
42.4 °F
Feels Like 42 °F
N
0.0
Wind Variable Wind from WNW
Gusts 2.0 mph

Today
High -- | Low -- °F
--% Chance of Precip.
Yesterday
High -- | Low -- °F
Precip. -- in
6:34 AM 7:29 PM
Waning Gibbous, 59% visible
Pressure 29.96 in
Visibility 10.0 miles
Clouds Clear
Windchill 42 °F
Dew Point 39 °F
Humidity 87%
Rainfall 0.00 in
Snow Depth Not available.
UV 0 out of 12
Pollen 10.10 out of 12
Air Quality Not available.
Flu Activity Not available.
METAR KLXV 041253Z AUTO 00000KT 10SM CLR 03/02 A3034 RMK AO2 SLP143 T00280017
Pressure 29.96 in
Visibility 10.0 miles
Clouds Clear
Windchill 42 °F
Dew Point 39 °F
Humidity 87%
Rainfall 0.00 in
Snow Depth Not available.
UV 0 out of 12
Pollen 10.10 out of 12
Air Quality Not available.
Flu Activity Not available.
METAR KLXV 041253Z AUTO 00000KT 10SM CLR 03/02 A3034 RMK AO2 SLP143 T00280017

10-Day Weather Forecast

×

Almanac

Astronomy

Sep. 04, 2015 Rise Set
Actual Time
Civil Twilight
Nautical Twilight
Astronomical Twilight
Moon
Length of Visible Light
Length of Day
Tomorrow will be .
, % of the Moon is Illuminated

Today's Extremes

State Highs State Lows

Community

WunderPhotos

Upload Photos

1,852,181 photos uploaded!

WunderBlogs® & News

Nearby

Air Quality

  Air Quality AQ Index Pollutant
Not available.

Snow Depth

Station Depth Elevation

Earthquake Activity

City Distance Mag. Time & Date
Minimum magnitude displayed is 2.5.

Coastal Water Temperatures

Place Temperature

Stations

Nearby Weather Stations

Station Location Temp. Windchill Dew Point Humidity Wind Precip. Elev Updated Type